createdAt,value
2023-04-30T00:01:01.501Z,22.67
2023-04-30T00:03:30.964Z,22.52
2023-04-30T00:06:02.786Z,27.70
2023-04-30T00:08:32.027Z,24.73
2023-04-30T00:11:01.245Z,25.38
2023-04-30T00:13:35.780Z,34.17
2023-04-30T00:16:05.418Z,41.90
2023-04-30T00:18:34.717Z,37.47
2023-04-30T00:21:06.685Z,30.45
2023-04-30T00:23:36.355Z,30.27
2023-04-30T00:26:05.708Z,30.48
2023-04-30T00:28:46.522Z,28.92
2023-04-30T00:31:15.981Z,35.42
2023-04-30T00:33:45.242Z,35.97
2023-04-30T00:36:21.684Z,29.63
2023-04-30T00:38:51.473Z,37.45
2023-04-30T00:41:21.459Z,30.63
2023-04-30T00:46:25.552Z,33.50
2023-04-30T00:48:55.092Z,28.85
2023-04-30T00:51:26.486Z,28.92
2023-04-30T00:53:56.253Z,38.47
2023-04-30T00:56:25.526Z,28.05
2023-04-30T00:58:57.113Z,34.78
2023-04-30T01:01:28.644Z,32.53
2023-04-30T01:03:59.036Z,29.80
2023-04-30T01:06:31.272Z,29.35
2023-04-30T01:09:05.874Z,36.17
2023-04-30T01:11:49.966Z,26.45
2023-04-30T01:14:30.767Z,29.73
2023-04-30T01:17:07.469Z,30.77
2023-04-30T01:19:45.496Z,34.88
2023-04-30T01:22:37.968Z,32.70
2023-04-30T01:25:24.009Z,27.85
2023-04-30T01:28:07.999Z,34.00
2023-04-30T01:30:45.400Z,33.38
2023-04-30T01:36:20.613Z,30.17
2023-04-30T01:39:10.437Z,30.10
2023-04-30T01:41:57.333Z,33.22
2023-04-30T01:44:45.103Z,29.13
2023-04-30T01:47:32.615Z,34.00
2023-04-30T01:50:12.497Z,28.33
2023-04-30T01:52:49.374Z,27.38
2023-04-30T01:55:25.933Z,31.15
2023-04-30T01:57:59.755Z,24.02
2023-04-30T02:00:32.655Z,23.63
2023-04-30T02:05:47.680Z,31.48
2023-04-30T02:08:17.059Z,26.15
2023-04-30T02:10:46.342Z,24.63
2023-04-30T02:13:33.834Z,26.15
2023-04-30T02:16:05.873Z,25.77
2023-04-30T02:18:40.365Z,37.42
2023-04-30T02:21:09.613Z,25.27
2023-04-30T02:23:38.791Z,25.17
2023-04-30T02:26:08.456Z,27.58
2023-04-30T02:28:37.839Z,26.55
2023-04-30T02:31:10.088Z,26.35
2023-04-30T02:33:39.968Z,32.40
2023-04-30T02:36:09.182Z,25.65
2023-04-30T02:38:38.421Z,29.38
2023-04-30T02:41:07.842Z,25.05
2023-04-30T02:43:37.044Z,28.38
2023-04-30T02:46:06.415Z,32.63
2023-04-30T02:48:37.590Z,29.77
2023-04-30T02:53:49.302Z,29.65
2023-04-30T02:56:18.451Z,27.83
2023-04-30T02:58:47.784Z,23.55
2023-04-30T03:01:17.489Z,28.73
2023-04-30T03:03:54.013Z,26.60
2023-04-30T03:06:28.413Z,30.27
2023-04-30T03:08:57.679Z,31.65
2023-04-30T03:11:27.185Z,35.38
2023-04-30T03:13:56.971Z,31.75
2023-04-30T03:16:26.592Z,30.63
2023-04-30T03:19:04.411Z,25.00
2023-04-30T03:21:33.972Z,23.27
2023-04-30T03:24:09.147Z,23.00
2023-04-30T03:26:38.567Z,25.02
2023-04-30T03:29:07.865Z,23.30
2023-04-30T03:31:38.053Z,21.98
2023-04-30T03:34:09.372Z,24.02
2023-04-30T03:36:38.890Z,23.95
2023-04-30T03:39:09.880Z,23.40
2023-04-30T03:41:39.540Z,24.30
2023-04-30T03:44:15.436Z,23.20
2023-04-30T03:46:45.219Z,27.48
2023-04-30T03:51:56.897Z,24.67
2023-04-30T03:54:26.254Z,20.55
2023-04-30T03:56:56.694Z,22.45
2023-04-30T03:59:26.647Z,20.23
2023-04-30T04:01:56.197Z,17.85
2023-04-30T04:04:27.535Z,15.93
2023-04-30T04:06:57.136Z,13.63
2023-04-30T04:09:26.966Z,16.60
2023-04-30T04:11:56.294Z,15.30
2023-04-30T04:14:30.513Z,21.80
2023-04-30T04:17:00.128Z,17.85
2023-04-30T04:19:31.433Z,21.35
2023-04-30T04:22:05.797Z,21.55
2023-04-30T04:24:36.228Z,23.05
2023-04-30T04:27:05.547Z,21.08
2023-04-30T04:29:35.545Z,18.90
2023-04-30T04:32:06.387Z,20.65
2023-04-30T04:34:38.237Z,23.95
2023-04-30T04:37:17.993Z,24.50
2023-04-30T04:39:47.430Z,23.38
2023-04-30T04:42:17.671Z,27.02
2023-04-30T04:44:53.212Z,28.67
2023-04-30T04:47:22.901Z,26.52
2023-04-30T04:49:54.388Z,25.20
2023-04-30T04:52:23.997Z,26.50
2023-04-30T04:54:55.279Z,24.77
2023-04-30T04:57:24.672Z,25.27
2023-04-30T04:59:54.284Z,26.73
2023-04-30T05:02:29.727Z,22.90
2023-04-30T05:05:01.574Z,20.27
2023-04-30T05:07:34.729Z,18.25
2023-04-30T05:10:10.035Z,14.98
2023-04-30T05:12:39.566Z,13.82
2023-04-30T05:15:09.911Z,14.18
2023-04-30T05:17:39.212Z,12.65
2023-04-30T05:20:12.278Z,12.85
2023-04-30T05:22:41.703Z,11.57
2023-04-30T05:25:11.769Z,11.32
2023-04-30T05:27:41.303Z,10.93
2023-04-30T05:30:12.492Z,12.90
2023-04-30T05:32:42.003Z,9.30
2023-04-30T05:35:13.485Z,11.68
2023-04-30T05:37:42.873Z,12.88
2023-04-30T05:40:13.593Z,10.40
2023-04-30T05:42:43.374Z,13.07
2023-04-30T05:45:16.907Z,13.10
2023-04-30T05:47:46.791Z,13.60
2023-04-30T05:50:23.613Z,10.90
2023-04-30T05:52:58.161Z,12.20
2023-04-30T05:55:27.417Z,16.10
2023-04-30T05:57:56.740Z,10.90
2023-04-30T06:00:31.367Z,14.13
2023-04-30T06:03:00.811Z,10.30
2023-04-30T06:05:32.189Z,12.82
2023-04-30T06:08:01.606Z,9.40
2023-04-30T06:10:31.056Z,10.98
2023-04-30T06:13:05.529Z,8.90
2023-04-30T06:15:35.310Z,9.90
2023-04-30T06:18:05.319Z,9.23
2023-04-30T06:20:36.791Z,8.55
2023-04-30T06:23:11.232Z,9.35
2023-04-30T06:25:41.391Z,10.18
2023-04-30T06:28:12.139Z,8.38
2023-04-30T06:30:42.485Z,6.82
2023-04-30T06:33:11.937Z,4.97
2023-04-30T06:35:43.081Z,4.95
2023-04-30T06:38:12.359Z,6.32
2023-04-30T06:40:41.722Z,6.93
2023-04-30T06:43:19.057Z,6.57
2023-04-30T06:45:48.360Z,6.40
2023-04-30T06:48:17.588Z,5.57
2023-04-30T06:50:48.929Z,5.65
2023-04-30T06:53:18.348Z,6.03
2023-04-30T06:55:49.149Z,5.85
2023-04-30T06:58:18.546Z,6.33
2023-04-30T07:00:47.817Z,5.65
2023-04-30T07:03:17.417Z,6.15
2023-04-30T07:05:48.873Z,8.50
2023-04-30T07:08:18.608Z,4.10
2023-04-30T07:10:47.943Z,5.35
2023-04-30T07:13:17.255Z,3.95
2023-04-30T07:15:47.006Z,3.58
2023-04-30T07:18:16.876Z,7.65
2023-04-30T07:20:46.254Z,5.30
2023-04-30T07:23:22.807Z,4.95
2023-04-30T07:25:52.380Z,4.20
2023-04-30T07:28:21.686Z,6.72
2023-04-30T07:30:51.110Z,4.65
2023-04-30T07:33:21.894Z,2.88
2023-04-30T07:35:51.347Z,1.35
2023-04-30T07:38:23.641Z,2.22
2023-04-30T07:40:53.175Z,9.43
2023-04-30T07:43:22.494Z,5.13
2023-04-30T07:45:53.100Z,2.53
2023-04-30T07:48:22.877Z,2.92
2023-04-30T07:50:52.838Z,2.22
2023-04-30T07:56:04.519Z,6.10
2023-04-30T07:58:33.822Z,4.95
2023-04-30T08:01:03.642Z,3.55
2023-04-30T08:03:33.000Z,1.85
2023-04-30T08:06:03.231Z,5.32
2023-04-30T08:08:39.362Z,1.65
2023-04-30T08:11:08.573Z,1.48
2023-04-30T08:13:37.802Z,1.55
2023-04-30T08:16:12.235Z,4.30
2023-04-30T08:18:44.458Z,3.08
2023-04-30T08:21:14.435Z,3.28
2023-04-30T08:23:51.145Z,2.08
2023-04-30T08:26:20.793Z,2.25
2023-04-30T08:28:50.055Z,2.85
2023-04-30T08:31:19.981Z,2.13
2023-04-30T08:33:54.720Z,1.42
2023-04-30T08:36:24.062Z,2.55
2023-04-30T08:38:58.090Z,8.82
2023-04-30T08:41:35.132Z,2.83
2023-04-30T08:44:26.734Z,3.80
2023-04-30T08:46:57.884Z,4.90
2023-04-30T08:49:27.906Z,3.63
2023-04-30T08:52:16.302Z,2.60
2023-04-30T08:54:49.200Z,2.50
2023-04-30T08:57:18.588Z,2.10
2023-04-30T08:59:48.111Z,2.08
2023-04-30T09:02:17.521Z,2.67
2023-04-30T09:04:47.792Z,3.05
2023-04-30T09:07:27.749Z,5.65
2023-04-30T09:10:04.634Z,2.33
2023-04-30T09:15:47.420Z,3.50
2023-04-30T09:18:18.046Z,7.65
2023-04-30T09:21:05.441Z,5.90
2023-04-30T09:23:40.122Z,2.40
2023-04-30T09:26:37.034Z,2.80
2023-04-30T09:29:10.058Z,1.83
2023-04-30T09:31:40.905Z,3.15
2023-04-30T09:34:10.674Z,3.30
2023-04-30T09:36:40.003Z,2.20
2023-04-30T09:39:13.313Z,5.68
2023-04-30T09:41:46.775Z,1.15
2023-04-30T09:44:32.279Z,2.10
2023-04-30T09:47:01.694Z,2.88
2023-04-30T09:49:31.146Z,2.88
2023-04-30T09:52:01.652Z,5.03
2023-04-30T09:54:32.655Z,1.63
2023-04-30T09:57:04.976Z,2.17
2023-04-30T09:59:37.644Z,1.67
2023-04-30T10:02:11.960Z,3.55
2023-04-30T10:04:43.981Z,5.15
2023-04-30T10:07:20.114Z,6.60
2023-04-30T10:09:53.131Z,1.08
2023-04-30T10:15:08.158Z,1.85
2023-04-30T10:17:49.465Z,3.60
2023-04-30T10:20:21.174Z,3.95
2023-04-30T10:25:19.912Z,2.03
2023-04-30T10:30:28.440Z,1.38
2023-04-30T10:33:06.047Z,1.65
2023-04-30T10:35:44.774Z,3.05
2023-04-30T10:38:22.010Z,2.47
2023-04-30T10:40:51.605Z,1.20
2023-04-30T10:43:22.981Z,2.38
2023-04-30T10:45:52.489Z,3.53
2023-04-30T10:48:29.112Z,3.78
2023-04-30T10:51:01.646Z,4.30
2023-04-30T10:53:34.789Z,3.53
2023-04-30T10:56:08.574Z,2.83
2023-04-30T10:58:45.257Z,4.20
2023-04-30T11:01:17.022Z,5.50
2023-04-30T11:04:07.943Z,3.63
2023-04-30T11:06:56.782Z,2.75
2023-04-30T11:09:43.751Z,2.92
2023-04-30T11:12:15.583Z,7.97
2023-04-30T11:14:53.450Z,3.75
2023-04-30T11:17:25.278Z,7.40
2023-04-30T11:19:56.256Z,5.75
2023-04-30T11:22:26.776Z,3.35
2023-04-30T11:25:14.289Z,1.88
2023-04-30T11:27:44.921Z,4.78
2023-04-30T11:30:17.828Z,4.32
2023-04-30T11:33:03.138Z,3.53
2023-04-30T11:38:23.934Z,2.15
2023-04-30T11:41:00.160Z,4.47
2023-04-30T11:43:30.765Z,2.78
2023-04-30T11:46:14.870Z,3.13
2023-04-30T11:48:46.637Z,7.13
2023-04-30T11:51:21.673Z,3.45
2023-04-30T11:53:57.683Z,4.53
2023-04-30T11:56:32.032Z,6.05
2023-04-30T11:59:01.374Z,2.97
2023-04-30T12:01:33.484Z,3.35
2023-04-30T12:04:03.939Z,3.75
2023-04-30T12:06:33.647Z,2.65
2023-04-30T12:09:04.634Z,3.15
2023-04-30T12:11:34.679Z,6.20
2023-04-30T12:14:07.200Z,3.90
2023-04-30T12:16:48.857Z,2.22
2023-04-30T12:19:18.790Z,5.97
2023-04-30T12:21:49.382Z,3.92
2023-04-30T12:24:20.218Z,3.63
2023-04-30T12:26:49.736Z,4.50
2023-04-30T12:29:20.968Z,5.25
2023-04-30T12:31:52.641Z,4.07
2023-04-30T12:34:30.524Z,4.55
2023-04-30T12:37:20.964Z,7.55
2023-04-30T12:39:58.038Z,5.05
2023-04-30T12:42:27.653Z,5.50
2023-04-30T12:51:46.798Z,6.13
2023-04-30T12:54:16.636Z,6.47
2023-04-30T12:59:39.810Z,5.22
2023-04-30T13:02:11.021Z,3.63
2023-04-30T13:04:41.037Z,3.72
2023-04-30T13:07:12.865Z,3.15
2023-04-30T13:12:11.737Z,2.30
2023-04-30T13:14:41.106Z,6.07
2023-04-30T13:17:12.075Z,4.10
2023-04-30T13:19:44.889Z,3.40
2023-04-30T13:22:16.348Z,2.95
2023-04-30T13:24:45.785Z,5.78
2023-04-30T13:27:15.043Z,10.25
2023-04-30T13:29:44.411Z,5.10
2023-04-30T13:32:13.679Z,6.07
2023-04-30T13:34:42.992Z,4.13
2023-04-30T13:37:12.606Z,5.72
2023-04-30T13:39:44.157Z,5.88
2023-04-30T13:44:49.613Z,4.10
2023-04-30T13:47:19.391Z,3.33
2023-04-30T13:49:48.663Z,5.20
2023-04-30T13:52:18.076Z,5.60
2023-04-30T13:54:49.590Z,3.83
2023-04-30T13:57:18.997Z,6.70
2023-04-30T13:59:48.694Z,7.75
2023-04-30T14:02:18.306Z,7.60
2023-04-30T14:05:02.108Z,4.30
2023-04-30T14:07:40.362Z,4.40
2023-04-30T14:10:12.486Z,7.45
2023-04-30T14:12:48.966Z,8.95
2023-04-30T14:15:33.771Z,6.50
2023-04-30T14:18:08.202Z,6.35
2023-04-30T14:20:37.509Z,7.85
2023-04-30T14:23:06.974Z,7.30
2023-04-30T14:25:38.579Z,8.55
2023-04-30T14:28:08.166Z,3.92
2023-04-30T14:30:37.427Z,4.68
2023-04-30T14:33:06.948Z,5.78
2023-04-30T14:35:36.737Z,7.47
2023-04-30T14:38:05.991Z,6.00
2023-04-30T14:40:42.331Z,6.30
2023-04-30T14:43:17.221Z,7.25
2023-04-30T14:45:46.903Z,4.15
2023-04-30T14:48:16.351Z,5.60
2023-04-30T14:50:46.151Z,6.40
2023-04-30T14:53:15.575Z,5.10
2023-04-30T14:55:46.796Z,3.70
2023-04-30T14:58:16.200Z,3.72
2023-04-30T15:01:04.130Z,7.22
2023-04-30T15:03:33.741Z,5.72
2023-04-30T15:06:04.287Z,7.97
2023-04-30T15:08:40.203Z,5.75
2023-04-30T15:11:12.890Z,6.53
2023-04-30T15:13:42.404Z,6.22
2023-04-30T15:16:17.049Z,9.10
2023-04-30T15:18:46.804Z,6.43
2023-04-30T15:21:16.117Z,5.80
2023-04-30T15:23:45.580Z,8.52
2023-04-30T15:26:18.982Z,8.90
2023-04-30T15:28:48.557Z,5.38
2023-04-30T15:31:17.829Z,5.18
2023-04-30T15:33:52.211Z,5.60
2023-04-30T15:36:26.648Z,5.88
2023-04-30T15:38:55.945Z,7.85
2023-04-30T15:41:27.378Z,8.35
2023-04-30T15:43:56.948Z,5.90
2023-04-30T15:46:26.396Z,6.50
2023-04-30T15:49:05.875Z,7.80
2023-04-30T15:51:36.339Z,7.50
2023-04-30T15:54:06.970Z,8.63
2023-04-30T15:56:58.025Z,4.80
2023-04-30T15:59:27.464Z,8.07
2023-04-30T16:01:57.084Z,7.95
2023-04-30T16:04:26.701Z,7.40
2023-04-30T16:09:31.467Z,4.43
2023-04-30T16:12:10.628Z,5.32
2023-04-30T16:14:40.820Z,4.82
2023-04-30T16:17:10.378Z,6.15
2023-04-30T16:19:40.726Z,6.22
2023-04-30T16:22:10.208Z,6.60
2023-04-30T16:24:39.488Z,5.43
2023-04-30T16:27:12.013Z,5.50
2023-04-30T16:29:46.759Z,5.40
2023-04-30T16:32:16.200Z,4.43
2023-04-30T16:34:45.739Z,4.95
2023-04-30T16:37:15.757Z,5.72
2023-04-30T16:39:45.232Z,7.53
2023-04-30T16:42:16.510Z,6.93
2023-04-30T16:44:45.959Z,6.10
2023-04-30T16:47:21.981Z,9.02
2023-04-30T16:49:51.399Z,9.43
2023-04-30T16:52:34.194Z,7.20
2023-04-30T16:55:04.298Z,5.78
2023-04-30T16:57:36.610Z,7.00
2023-04-30T17:00:11.071Z,4.63
2023-04-30T17:05:22.317Z,5.95
2023-04-30T17:07:51.753Z,4.55
2023-04-30T17:10:27.059Z,7.50
2023-04-30T17:12:59.587Z,10.52
2023-04-30T17:15:33.941Z,5.82
2023-04-30T17:18:03.378Z,5.25
2023-04-30T17:20:33.558Z,6.13
2023-04-30T17:23:03.334Z,3.55
2023-04-30T17:25:33.388Z,2.33
2023-04-30T17:28:05.147Z,4.35
2023-04-30T17:30:35.693Z,5.65
2023-04-30T17:33:05.680Z,3.15
2023-04-30T17:35:35.294Z,6.28
2023-04-30T17:38:15.077Z,3.05
2023-04-30T17:40:44.333Z,5.78
2023-04-30T17:43:15.548Z,6.70
2023-04-30T17:45:45.294Z,5.43
2023-04-30T17:48:19.693Z,8.05
2023-04-30T17:50:49.083Z,5.05
2023-04-30T17:53:18.220Z,3.60
2023-04-30T17:55:47.593Z,2.72
2023-04-30T17:58:46.043Z,3.78
2023-04-30T18:01:15.525Z,1.90
2023-04-30T18:03:44.967Z,6.13
2023-04-30T18:06:14.663Z,3.55
2023-04-30T18:08:44.123Z,4.43
2023-04-30T18:11:18.588Z,3.47
2023-04-30T18:13:49.827Z,2.65
2023-04-30T18:16:19.756Z,5.32
2023-04-30T18:18:55.743Z,5.63
2023-04-30T18:21:40.073Z,4.68
2023-04-30T18:24:10.242Z,2.70
2023-04-30T18:26:44.623Z,3.95
2023-04-30T18:29:17.735Z,4.95
2023-04-30T18:31:47.399Z,4.55
2023-04-30T18:34:16.783Z,4.88
2023-04-30T18:36:46.142Z,3.10
2023-04-30T18:39:15.477Z,4.20
2023-04-30T18:41:44.777Z,6.47
2023-04-30T18:44:16.095Z,3.42
2023-04-30T18:46:50.719Z,3.50
2023-04-30T18:49:19.994Z,3.15
2023-04-30T18:51:49.288Z,4.78
2023-04-30T18:54:18.514Z,3.38
2023-04-30T18:56:47.776Z,4.70
2023-04-30T18:59:21.579Z,3.38
2023-04-30T19:01:51.292Z,3.58
2023-04-30T19:04:20.597Z,4.38
2023-04-30T19:07:02.857Z,7.10
2023-04-30T19:09:48.154Z,5.97
2023-04-30T19:12:27.477Z,3.35
2023-04-30T19:14:58.664Z,3.58
2023-04-30T19:17:30.204Z,3.58
2023-04-30T19:20:00.324Z,5.70
2023-04-30T19:22:29.582Z,6.97
2023-04-30T19:24:58.860Z,5.68
2023-04-30T19:27:28.958Z,5.95
2023-04-30T19:30:07.235Z,5.18
2023-04-30T19:32:36.647Z,7.25
2023-04-30T19:35:06.689Z,5.55
2023-04-30T19:40:12.397Z,4.03
2023-04-30T19:42:41.933Z,3.97
2023-04-30T19:45:13.880Z,4.30
2023-04-30T19:47:43.399Z,4.75
2023-04-30T19:50:36.351Z,3.65
2023-04-30T19:53:05.694Z,4.30
2023-04-30T19:55:35.058Z,4.40
2023-04-30T19:58:09.460Z,4.32
2023-04-30T20:00:44.881Z,4.80
2023-04-30T20:03:15.876Z,4.80
2023-04-30T20:05:46.300Z,4.80
2023-04-30T20:08:21.611Z,3.45
2023-04-30T20:10:50.925Z,5.00
2023-04-30T20:13:20.685Z,2.85
2023-04-30T20:15:52.464Z,6.22
2023-04-30T20:20:50.517Z,3.53
2023-04-30T20:23:31.422Z,4.85
2023-04-30T20:26:05.928Z,4.97
2023-04-30T20:28:36.423Z,4.97
2023-04-30T20:31:09.179Z,5.18
2023-04-30T20:33:40.844Z,6.88
2023-04-30T20:36:17.044Z,5.47
2023-04-30T20:38:46.799Z,3.13
2023-04-30T20:41:16.014Z,4.03
2023-04-30T20:43:45.669Z,3.58
2023-04-30T20:46:16.903Z,5.20
2023-04-30T20:49:04.764Z,3.50
2023-04-30T20:51:39.869Z,4.30
2023-04-30T20:54:09.472Z,3.78
2023-04-30T20:56:44.808Z,4.43
2023-04-30T20:59:13.974Z,4.30
2023-04-30T21:01:59.329Z,4.68
2023-04-30T21:04:28.770Z,4.45
2023-04-30T21:06:58.086Z,5.18
2023-04-30T21:09:27.504Z,4.30
2023-04-30T21:11:57.001Z,5.47
2023-04-30T21:14:32.179Z,6.35
2023-04-30T21:17:13.962Z,5.18
2023-04-30T21:19:43.631Z,3.63
2023-04-30T21:22:28.388Z,5.57
2023-04-30T21:25:02.885Z,4.07
2023-04-30T21:27:34.719Z,3.63
2023-04-30T21:30:04.195Z,5.18
2023-04-30T21:32:37.083Z,4.07
2023-04-30T21:35:07.422Z,5.32
2023-04-30T21:37:37.170Z,4.85
2023-04-30T21:40:07.500Z,5.55
2023-04-30T21:42:36.703Z,4.45
2023-04-30T21:45:24.569Z,4.88
2023-04-30T21:47:55.981Z,3.88
2023-04-30T21:50:39.011Z,4.43
2023-04-30T21:53:08.591Z,5.80
2023-04-30T21:55:37.974Z,3.65
2023-04-30T21:58:22.077Z,3.33
2023-04-30T22:00:51.434Z,4.07
2023-04-30T22:03:27.890Z,4.22
2023-04-30T22:06:25.168Z,5.07
2023-04-30T22:08:59.543Z,4.07
2023-04-30T22:11:29.018Z,5.90
2023-04-30T22:13:58.614Z,3.10
2023-04-30T22:16:32.880Z,5.82
2023-04-30T22:19:04.149Z,5.38
2023-04-30T22:21:40.329Z,3.72
2023-04-30T22:24:09.494Z,5.30
2023-04-30T22:26:57.603Z,4.03
2023-04-30T22:29:26.956Z,3.83
2023-04-30T22:31:56.189Z,3.97
2023-04-30T22:34:27.519Z,4.40
2023-04-30T22:36:56.819Z,3.65
2023-04-30T22:39:26.356Z,5.57
2023-04-30T22:41:55.908Z,3.97
2023-04-30T22:44:26.009Z,3.95
2023-04-30T22:46:58.762Z,5.30
2023-04-30T22:49:32.383Z,5.63
2023-04-30T22:52:02.837Z,5.07
2023-04-30T22:54:32.690Z,6.72
2023-04-30T22:57:02.720Z,5.45
2023-04-30T23:02:07.322Z,5.38
2023-04-30T23:04:38.778Z,6.28
2023-04-30T23:09:37.264Z,5.65
2023-04-30T23:12:06.920Z,6.00
2023-04-30T23:14:37.217Z,7.15
2023-04-30T23:17:06.970Z,7.57
2023-04-30T23:19:38.967Z,8.00
2023-04-30T23:24:38.326Z,6.97
2023-04-30T23:27:13.192Z,7.18
2023-04-30T23:29:42.560Z,7.07
2023-04-30T23:32:11.912Z,7.28
2023-04-30T23:34:43.080Z,7.78
2023-04-30T23:37:13.493Z,6.95
2023-04-30T23:39:43.091Z,7.32
2023-04-30T23:42:13.309Z,5.03
2023-04-30T23:44:42.569Z,9.43
2023-04-30T23:47:12.140Z,5.95
2023-04-30T23:49:45.804Z,7.28
2023-04-30T23:52:25.573Z,7.20
2023-04-30T23:54:54.813Z,7.65
2023-04-30T23:57:24.278Z,6.50
2023-04-30T23:59:53.810Z,5.70
